Time;durP1;ratioP1;P1;durP2;ratioP2;P2;SDS_P1;SDS_P2;PMS_P1;PMS_P2;Temp;Humidity;BMP_temperature;BMP_pressure;BME280_temperature;BME280_humidity;BME280_pressure;Samples;Min_cycle;Max_cycle;Signal;HPM_P1;HPM_P2
2021/04/20 00:01:53;;;;;;;;;;;9.60;70.30;;;;;;5028567;28;20011;-76
2021/04/20 00:04:20;;;;;;;;;;;9.60;70.20;;;;;;5033224;28;19991;-77
2021/04/20 00:06:46;;;;;;;;;;;9.60;70.10;;;;;;5030385;28;19944;-77
2021/04/20 00:09:13;;;;;;;;;;;9.60;70.10;;;;;;5024784;28;20277;-77
2021/04/20 00:11:39;;;;;;;;;;;9.60;70.10;;;;;;5028328;28;19964;-77
2021/04/20 00:14:06;;;;;;;;;;;9.50;70.00;;;;;;5036808;28;20365;-77
2021/04/20 00:16:33;;;;;;;;;;;9.50;70.10;;;;;;5053425;28;19966;-77
2021/04/20 00:19:00;;;;;;;;;;;9.50;70.10;;;;;;5041110;28;19933;-77
2021/04/20 00:21:26;;;;;;;;;;;9.40;70.00;;;;;;5033202;28;20011;-78
2021/04/20 00:23:52;;;;;;;;;;;9.40;70.10;;;;;;5029800;28;19921;-77
2021/04/20 00:26:18;;;;;;;;;;;9.40;70.20;;;;;;5032644;28;19950;-77
2021/04/20 00:28:45;;;;;;;;;;;9.40;70.10;;;;;;5028996;28;19929;-77
2021/04/20 00:31:11;;;;;;;;;;;9.40;70.10;;;;;;5022795;28;19944;-77
2021/04/20 00:33:40;;;;;;;;;;;9.40;70.10;;;;;;5026547;28;19975;-78
2021/04/20 00:36:07;;;;;;;;;;;9.30;70.00;;;;;;5029073;28;20304;-78
2021/04/20 00:38:33;;;;;;;;;;;9.30;70.00;;;;;;5032495;28;19921;-77
2021/04/20 00:41:03;;;;;;;;;;;9.30;70.10;;;;;;5028136;28;20365;-78
2021/04/20 00:43:32;;;;;;;;;;;9.30;70.10;;;;;;5031014;28;19929;-78
2021/04/20 00:45:59;;;;;;;;;;;9.30;70.00;;;;;;5033139;28;19921;-77
2021/04/20 00:48:25;;;;;;;;;;;9.30;70.00;;;;;;5030573;28;21485;-77
2021/04/20 00:50:52;;;;;;;;;;;9.20;70.00;;;;;;5021701;28;20277;-78
2021/04/20 00:53:18;;;;;;;;;;;9.20;70.00;;;;;;5031104;28;19921;-76
2021/04/20 00:55:44;;;;;;;;;;;9.20;69.90;;;;;;5030939;28;19928;-77
2021/04/20 00:58:11;;;;;;;;;;;9.20;69.90;;;;;;5033375;28;19932;-78
2021/04/20 01:00:37;;;;;;;;;;;9.20;69.90;;;;;;5031516;28;19921;-78
2021/04/20 01:03:04;;;;;;;;;;;9.10;69.70;;;;;;5028699;28;19999;-77
2021/04/20 01:05:32;;;;;;;;;;;9.10;69.60;;;;;;5022838;28;19925;-76
2021/04/20 01:08:00;;;;;;;;;;;9.10;69.70;;;;;;5028802;28;20442;-76
2021/04/20 01:10:27;;;;;;;;;;;9.10;69.70;;;;;;5033015;28;19975;-77
2021/04/20 01:12:54;;;;;;;;;;;9.10;69.70;;;;;;5026567;28;19951;-77
2021/04/20 01:15:20;;;;;;;;;;;9.10;69.70;;;;;;5032124;28;20289;-77
2021/04/20 01:17:47;;;;;;;;;;;9.10;69.60;;;;;;5034238;28;19967;-76
2021/04/20 01:20:14;;;;;;;;;;;9.10;69.50;;;;;;5030673;28;19925;-76
2021/04/20 01:22:41;;;;;;;;;;;9.00;69.40;;;;;;5031037;28;19926;-76
2021/04/20 01:25:09;;;;;;;;;;;9.00;69.40;;;;;;5036676;28;19943;-76
2021/04/20 01:27:36;;;;;;;;;;;9.00;69.50;;;;;;5022279;28;20269;-76
2021/04/20 01:30:03;;;;;;;;;;;9.00;69.50;;;;;;5027018;28;19925;-76
2021/04/20 01:32:30;;;;;;;;;;;9.00;69.40;;;;;;5034799;28;20397;-75
2021/04/20 01:34:56;;;;;;;;;;;9.00;69.40;;;;;;5031874;28;20277;-76
2021/04/20 01:37:23;;;;;;;;;;;9.00;69.50;;;;;;5038096;28;20254;-76
2021/04/20 01:39:50;;;;;;;;;;;9.00;69.40;;;;;;5036382;28;20277;-75
2021/04/20 01:42:17;;;;;;;;;;;9.00;69.40;;;;;;5035913;28;19925;-75
2021/04/20 01:44:44;;;;;;;;;;;9.00;69.50;;;;;;5028158;28;19921;-77
2021/04/20 01:47:10;;;;;;;;;;;9.00;69.50;;;;;;5025998;28;19926;-77
2021/04/20 01:49:40;;;;;;;;;;;9.00;69.50;;;;;;5035254;28;20351;-76
2021/04/20 01:52:06;;;;;;;;;;;8.90;69.50;;;;;;5039554;28;20047;-76
2021/04/20 01:54:32;;;;;;;;;;;8.90;69.60;;;;;;5025889;28;19921;-76
2021/04/20 01:56:59;;;;;;;;;;;8.90;69.60;;;;;;5031988;28;19925;-76
2021/04/20 01:59:26;;;;;;;;;;;8.80;69.50;;;;;;5036399;28;19921;-76
2021/04/20 02:01:53;;;;;;;;;;;8.80;69.50;;;;;;5028111;28;20369;-78
2021/04/20 02:04:19;;;;;;;;;;;8.80;69.50;;;;;;5033598;28;19925;-78
2021/04/20 02:06:46;;;;;;;;;;;8.80;69.60;;;;;;5029171;28;19921;-78
2021/04/20 02:09:12;;;;;;;;;;;8.80;69.40;;;;;;5035492;28;19928;-77
2021/04/20 02:11:39;;;;;;;;;;;8.80;69.20;;;;;;5032695;28;20251;-77
2021/04/20 02:14:05;;;;;;;;;;;8.80;69.10;;;;;;5030874;28;19933;-78
2021/04/20 02:16:33;;;;;;;;;;;8.70;69.00;;;;;;5031164;28;19921;-78
2021/04/20 02:19:00;;;;;;;;;;;8.70;69.00;;;;;;5026423;28;19932;-77
2021/04/20 02:21:26;;;;;;;;;;;8.70;69.00;;;;;;5033403;28;19921;-78
2021/04/20 02:23:53;;;;;;;;;;;8.70;69.00;;;;;;5026795;28;19921;-77
2021/04/20 02:26:24;;;;;;;;;;;8.70;68.90;;;;;;5024682;28;19929;-77
2021/04/20 02:28:50;;;;;;;;;;;8.70;69.00;;;;;;5029606;28;19991;-77
2021/04/20 02:31:17;;;;;;;;;;;8.70;68.90;;;;;;5032524;28;19925;-77
2021/04/20 02:33:44;;;;;;;;;;;8.70;68.80;;;;;;5033499;28;19947;-76
2021/04/20 02:36:11;;;;;;;;;;;8.70;68.70;;;;;;5033214;28;19925;-76
2021/04/20 02:38:37;;;;;;;;;;;8.80;68.70;;;;;;5007858;28;19921;-76
2021/04/20 02:41:04;;;;;;;;;;;8.80;68.80;;;;;;5032026;28;19967;-76
2021/04/20 02:43:30;;;;;;;;;;;8.80;68.60;;;;;;5033573;28;19937;-76
2021/04/20 02:45:58;;;;;;;;;;;8.90;68.60;;;;;;5030467;28;20366;-76
2021/04/20 02:48:24;;;;;;;;;;;8.90;68.60;;;;;;5034168;28;19928;-76
2021/04/20 02:50:52;;;;;;;;;;;9.00;68.70;;;;;;5027346;28;19925;-76
2021/04/20 02:53:19;;;;;;;;;;;9.10;68.40;;;;;;5031829;28;19991;-78
2021/04/20 02:55:45;;;;;;;;;;;9.20;68.40;;;;;;5027633;28;20365;-79
2021/04/20 02:58:14;;;;;;;;;;;9.20;68.40;;;;;;5033331;28;20023;-79
2021/04/20 03:00:42;;;;;;;;;;;9.30;68.40;;;;;;5032352;28;20269;-79
2021/04/20 03:03:08;;;;;;;;;;;9.30;68.40;;;;;;5052952;28;20079;-80
2021/04/20 03:05:35;;;;;;;;;;;9.30;68.40;;;;;;5025823;28;20019;-80
2021/04/20 03:08:02;;;;;;;;;;;9.30;68.60;;;;;;5032576;28;19921;-79
2021/04/20 03:10:28;;;;;;;;;;;9.40;68.80;;;;;;5034528;28;20365;-80
2021/04/20 03:12:58;;;;;;;;;;;9.40;69.00;;;;;;5029306;28;19971;-80
2021/04/20 03:15:25;;;;;;;;;;;9.40;69.10;;;;;;5024489;28;19921;-80
2021/04/20 03:17:51;;;;;;;;;;;9.40;69.50;;;;;;5025945;28;19929;-79
2021/04/20 03:20:18;;;;;;;;;;;9.40;69.70;;;;;;5034417;28;19921;-80
2021/04/20 03:22:45;;;;;;;;;;;9.40;70.30;;;;;;5034813;28;19986;-76
2021/04/20 03:25:17;;;;;;;;;;;9.40;70.70;;;;;;5034272;28;20296;-77
2021/04/20 03:27:44;;;;;;;;;;;9.40;70.70;;;;;;5034530;28;19921;-77
2021/04/20 03:30:11;;;;;;;;;;;9.40;70.60;;;;;;5034161;28;20011;-77
2021/04/20 03:32:38;;;;;;;;;;;9.40;70.40;;;;;;5037487;28;19924;-76
2021/04/20 03:35:06;;;;;;;;;;;9.40;70.50;;;;;;5053995;28;19921;-77
2021/04/20 03:37:34;;;;;;;;;;;9.40;70.60;;;;;;5045164;28;19921;-76
2021/04/20 03:40:01;;;;;;;;;;;9.30;70.60;;;;;;5045969;28;19928;-77
2021/04/20 03:42:31;;;;;;;;;;;9.30;70.90;;;;;;5045949;28;19924;-78
2021/04/20 03:45:00;;;;;;;;;;;9.30;71.00;;;;;;5045124;28;19971;-78
2021/04/20 03:47:29;;;;;;;;;;;9.30;70.60;;;;;;5033741;28;19921;-78
2021/04/20 03:49:55;;;;;;;;;;;9.30;70.60;;;;;;5033195;28;19921;-78
2021/04/20 03:52:25;;;;;;;;;;;9.30;70.90;;;;;;5033233;28;20373;-78
2021/04/20 03:54:52;;;;;;;;;;;9.30;71.20;;;;;;5033722;28;19929;-78
2021/04/20 03:57:19;;;;;;;;;;;9.30;71.00;;;;;;5033759;28;19921;-78
2021/04/20 03:59:48;;;;;;;;;;;9.30;70.60;;;;;;5033517;28;19921;-78
2021/04/20 04:02:16;;;;;;;;;;;9.30;70.70;;;;;;5033309;28;19926;-78
2021/04/20 04:04:43;;;;;;;;;;;9.30;70.60;;;;;;5033279;28;19975;-78
2021/04/20 04:07:18;;;;;;;;;;;9.20;70.60;;;;;;5033179;28;20357;-80
2021/04/20 04:09:46;;;;;;;;;;;9.20;70.20;;;;;;5032174;28;20279;-81
2021/04/20 04:12:13;;;;;;;;;;;9.20;70.20;;;;;;5032670;28;19921;-79
2021/04/20 04:14:40;;;;;;;;;;;9.10;70.00;;;;;;5033224;28;19925;-78
2021/04/20 04:17:10;;;;;;;;;;;9.20;70.10;;;;;;5040313;28;19920;-78
2021/04/20 04:19:38;;;;;;;;;;;9.10;70.20;;;;;;5030580;28;19921;-79
2021/04/20 04:22:06;;;;;;;;;;;9.10;70.40;;;;;;5020553;28;19928;-79
2021/04/20 04:24:36;;;;;;;;;;;9.20;70.70;;;;;;5030303;28;19928;-79
2021/04/20 04:27:05;;;;;;;;;;;9.20;70.50;;;;;;5033501;28;19921;-79
2021/04/20 04:29:31;;;;;;;;;;;9.20;70.30;;;;;;5019049;28;19928;-80
2021/04/20 04:32:00;;;;;;;;;;;9.20;70.20;;;;;;5033548;28;19921;-80
2021/04/20 04:34:28;;;;;;;;;;;9.20;70.30;;;;;;5032248;28;19921;-79
2021/04/20 04:36:55;;;;;;;;;;;9.10;70.20;;;;;;5031044;28;20434;-79
2021/04/20 04:39:41;;;;;;;;;;;9.10;70.20;;;;;;5025618;28;20278;-80
2021/04/20 04:42:10;;;;;;;;;;;9.10;70.30;;;;;;5030369;28;20015;-80
2021/04/20 04:44:36;;;;;;;;;;;9.00;70.30;;;;;;5036937;28;19921;-80
2021/04/20 04:47:09;;;;;;;;;;;9.00;70.20;;;;;;5045580;28;19920;-82
2021/04/20 04:49:37;;;;;;;;;;;8.90;70.10;;;;;;5028294;28;19951;-80
2021/04/20 04:55:07;;;;;;;;;;;8.90;69.90;;;;;;4979312;28;19929;-79
2021/04/20 04:57:33;;;;;;;;;;;8.90;69.50;;;;;;4976840;28;19928;-80
2021/04/20 05:00:09;;;;;;;;;;;8.90;69.30;;;;;;5002441;28;20273;-81
2021/04/20 05:02:49;;;;;;;;;;;8.90;69.30;;;;;;5023440;28;19921;-81
2021/04/20 05:05:18;;;;;;;;;;;9.00;69.30;;;;;;5038309;28;19921;-79
2021/04/20 05:07:44;;;;;;;;;;;9.00;69.00;;;;;;5030608;28;19921;-80
2021/04/20 05:10:13;;;;;;;;;;;8.90;69.10;;;;;;5029635;28;19928;-79
2021/04/20 05:12:39;;;;;;;;;;;8.90;69.10;;;;;;5032355;28;19921;-79
2021/04/20 05:15:12;;;;;;;;;;;8.90;69.00;;;;;;5036034;28;19929;-80
2021/04/20 05:17:38;;;;;;;;;;;8.90;69.00;;;;;;5044049;28;20242;-77
2021/04/20 05:20:06;;;;;;;;;;;8.90;69.00;;;;;;5028490;28;19925;-78
2021/04/20 05:22:34;;;;;;;;;;;8.90;69.00;;;;;;5029016;28;19928;-78
2021/04/20 05:25:01;;;;;;;;;;;8.90;69.10;;;;;;5028588;28;19928;-77
2021/04/20 05:27:27;;;;;;;;;;;8.90;69.00;;;;;;5031866;28;19921;-79
2021/04/20 05:29:54;;;;;;;;;;;8.90;69.00;;;;;;5027417;28;19921;-79
2021/04/20 05:32:20;;;;;;;;;;;8.90;69.00;;;;;;5028216;28;19921;-80
2021/04/20 05:34:46;;;;;;;;;;;8.90;69.00;;;;;;5025773;28;19944;-80
2021/04/20 05:37:12;;;;;;;;;;;8.90;69.00;;;;;;5024954;28;19921;-79
2021/04/20 05:39:40;;;;;;;;;;;8.90;69.10;;;;;;5032308;28;19925;-79
2021/04/20 05:42:06;;;;;;;;;;;9.00;69.20;;;;;;5031788;28;19925;-80
2021/04/20 05:44:33;;;;;;;;;;;9.00;68.90;;;;;;5036292;28;19945;-78
2021/04/20 05:46:59;;;;;;;;;;;9.10;68.80;;;;;;5023776;28;19975;-78
2021/04/20 05:49:27;;;;;;;;;;;9.20;68.70;;;;;;5028834;28;19921;-79
2021/04/20 05:51:54;;;;;;;;;;;9.20;68.60;;;;;;5017790;28;20004;-79
2021/04/20 05:54:20;;;;;;;;;;;9.20;68.60;;;;;;5015766;28;19925;-80
2021/04/20 05:56:49;;;;;;;;;;;9.30;68.70;;;;;;5029712;28;20305;-80
2021/04/20 05:59:17;;;;;;;;;;;9.30;68.50;;;;;;5044318;28;19925;-79
2021/04/20 06:01:43;;;;;;;;;;;9.40;68.50;;;;;;5047795;28;19921;-79
2021/04/20 06:04:10;;;;;;;;;;;9.50;68.60;;;;;;5038735;28;19932;-79
2021/04/20 06:06:38;;;;;;;;;;;9.50;68.40;;;;;;5036540;28;19921;-79
2021/04/20 06:09:09;;;;;;;;;;;9.50;68.20;;;;;;5030933;28;19921;-78
2021/04/20 06:11:36;;;;;;;;;;;9.50;68.40;;;;;;5028044;28;20269;-78
2021/04/20 06:14:03;;;;;;;;;;;9.60;68.50;;;;;;5028746;28;19925;-79
2021/04/20 06:16:30;;;;;;;;;;;9.70;68.50;;;;;;5039630;28;19925;-79
2021/04/20 06:18:57;;;;;;;;;;;9.70;68.40;;;;;;5037438;28;20251;-79
2021/04/20 06:24:32;;;;;;;;;;;9.90;68.50;;;;;;5011016;28;19972;-81
2021/04/20 06:27:06;;;;;;;;;;;10.00;67.50;;;;;;5035180;28;20296;-82
2021/04/20 06:29:38;;;;;;;;;;;10.10;67.50;;;;;;5013583;28;19922;-82
2021/04/20 06:35:35;;;;;;;;;;;10.40;67.30;;;;;;4944897;29;19976;-84
2021/04/20 06:41:01;;;;;;;;;;;10.60;67.00;;;;;;5009507;28;19932;-76
2021/04/20 06:43:34;;;;;;;;;;;10.70;66.90;;;;;;5034878;28;20388;-83
2021/04/20 06:46:03;;;;;;;;;;;10.80;66.90;;;;;;5028776;28;20298;-77
2021/04/20 06:48:36;;;;;;;;;;;10.90;66.90;;;;;;5050658;28;19924;-76
2021/04/20 06:51:17;;;;;;;;;;;11.00;67.10;;;;;;5044543;28;19921;-81
2021/04/20 06:53:44;;;;;;;;;;;11.10;67.10;;;;;;5050478;28;20258;-78
2021/04/20 06:56:20;;;;;;;;;;;11.30;67.30;;;;;;5024051;28;19940;-78
2021/04/20 06:58:48;;;;;;;;;;;11.60;67.40;;;;;;5035035;28;19928;-78
2021/04/20 07:01:18;;;;;;;;;;;12.00;66.20;;;;;;5034764;28;19929;-78
2021/04/20 07:03:53;;;;;;;;;;;12.10;65.00;;;;;;5034754;28;19975;-77
2021/04/20 07:06:22;;;;;;;;;;;12.10;64.80;;;;;;5036009;28;19936;-80
2021/04/20 07:08:55;;;;;;;;;;;12.00;64.90;;;;;;5035538;28;19925;-78
2021/04/20 07:11:25;;;;;;;;;;;12.00;65.10;;;;;;5038779;28;19921;-78
2021/04/20 07:13:53;;;;;;;;;;;11.90;65.60;;;;;;5034865;28;19925;-78
2021/04/20 07:16:26;;;;;;;;;;;11.90;65.70;;;;;;5029405;28;19944;-78
2021/04/20 07:19:06;;;;;;;;;;;11.90;65.80;;;;;;5034794;28;19921;-78
2021/04/20 07:21:52;;;;;;;;;;;11.90;65.90;;;;;;5034487;28;19932;-78
2021/04/20 07:24:19;;;;;;;;;;;12.00;66.10;;;;;;5034511;28;19922;-78
2021/04/20 07:26:56;;;;;;;;;;;12.10;66.00;;;;;;5034619;28;19967;-78
2021/04/20 07:29:33;;;;;;;;;;;12.30;66.20;;;;;;5027745;28;19922;-79
2021/04/20 07:32:08;;;;;;;;;;;12.50;66.10;;;;;;5025032;28;19922;-79
2021/04/20 07:34:37;;;;;;;;;;;12.70;65.60;;;;;;5024501;28;19925;-79
2021/04/20 07:37:23;;;;;;;;;;;12.90;65.30;;;;;;5033787;28;20285;-78
2021/04/20 07:39:54;;;;;;;;;;;13.10;64.80;;;;;;5024479;28;19979;-79
2021/04/20 07:42:22;;;;;;;;;;;13.30;64.40;;;;;;5031438;28;20363;-77
2021/04/20 07:44:53;;;;;;;;;;;13.50;64.20;;;;;;5042558;28;20278;-77
2021/04/20 07:47:23;;;;;;;;;;;13.60;63.30;;;;;;5034204;28;20006;-78
2021/04/20 07:49:53;;;;;;;;;;;13.70;62.90;;;;;;5021287;28;20439;-79
2021/04/20 07:52:23;;;;;;;;;;;13.80;62.30;;;;;;5051084;28;20008;-79
2021/04/20 07:54:53;;;;;;;;;;;13.90;62.30;;;;;;5033369;28;20277;-79
2021/04/20 07:57:24;;;;;;;;;;;14.00;62.50;;;;;;5053670;28;19921;-78
2021/04/20 07:59:58;;;;;;;;;;;14.10;62.20;;;;;;5043148;28;19975;-78
2021/04/20 08:02:33;;;;;;;;;;;14.20;61.70;;;;;;5031306;28;20344;-77
2021/04/20 08:05:07;;;;;;;;;;;14.40;61.40;;;;;;5040036;28;20313;-77
2021/04/20 08:07:39;;;;;;;;;;;14.50;61.00;;;;;;5033124;28;19929;-77
2021/04/20 08:10:08;;;;;;;;;;;14.50;60.30;;;;;;5031969;28;19975;-78
2021/04/20 08:12:37;;;;;;;;;;;14.40;60.20;;;;;;5032832;28;19920;-77
2021/04/20 08:15:08;;;;;;;;;;;14.60;60.20;;;;;;5051145;28;20066;-77
2021/04/20 08:17:39;;;;;;;;;;;14.70;59.90;;;;;;5033419;28;19956;-78
2021/04/20 08:20:08;;;;;;;;;;;14.80;59.90;;;;;;5033144;28;19921;-77
2021/04/20 08:22:34;;;;;;;;;;;14.90;59.60;;;;;;5052976;28;20411;-78
2021/04/20 08:25:06;;;;;;;;;;;15.10;59.20;;;;;;5049750;28;20392;-77
2021/04/20 08:27:36;;;;;;;;;;;15.20;59.10;;;;;;5053181;28;19967;-77
2021/04/20 08:30:06;;;;;;;;;;;15.30;59.00;;;;;;5046068;28;19999;-77
2021/04/20 08:32:33;;;;;;;;;;;15.30;58.60;;;;;;5053151;28;19967;-77
2021/04/20 08:35:02;;;;;;;;;;;15.40;58.10;;;;;;5050163;28;19921;-77
2021/04/20 08:37:34;;;;;;;;;;;15.40;57.90;;;;;;5052766;28;19928;-77
2021/04/20 08:40:18;;;;;;;;;;;15.50;58.00;;;;;;5051224;28;19929;-77
2021/04/20 08:42:50;;;;;;;;;;;15.60;57.70;;;;;;5052874;28;19921;-77
2021/04/20 08:45:21;;;;;;;;;;;15.80;57.50;;;;;;5039645;28;20536;-77
2021/04/20 08:47:52;;;;;;;;;;;15.90;57.00;;;;;;5032968;28;20016;-77
2021/04/20 08:50:21;;;;;;;;;;;16.00;56.60;;;;;;5033032;28;19921;-77
2021/04/20 08:52:50;;;;;;;;;;;16.00;55.70;;;;;;5032951;28;19925;-77
2021/04/20 08:55:24;;;;;;;;;;;16.10;56.00;;;;;;5032828;28;20320;-77
2021/04/20 08:58:12;;;;;;;;;;;16.10;55.90;;;;;;5033030;28;19921;-77
2021/04/20 09:00:40;;;;;;;;;;;16.10;55.30;;;;;;5032958;28;19928;-77
2021/04/20 09:03:14;;;;;;;;;;;16.00;56.10;;;;;;5031582;28;19921;-77
2021/04/20 09:05:44;;;;;;;;;;;16.10;56.40;;;;;;5032729;28;19930;-77
2021/04/20 09:08:25;;;;;;;;;;;16.20;55.50;;;;;;5032814;28;19925;-77
2021/04/20 09:10:54;;;;;;;;;;;16.10;55.40;;;;;;5032796;28;19944;-77
2021/04/20 09:13:21;;;;;;;;;;;16.10;55.20;;;;;;5033041;28;19925;-77
2021/04/20 09:15:49;;;;;;;;;;;16.00;55.10;;;;;;5032749;28;19921;-77
2021/04/20 09:18:21;;;;;;;;;;;16.00;55.20;;;;;;5026362;28;19921;-77
2021/04/20 09:20:59;;;;;;;;;;;15.80;55.30;;;;;;5032696;28;19968;-77
2021/04/20 09:23:27;;;;;;;;;;;15.70;55.50;;;;;;5032810;28;19932;-77
2021/04/20 09:25:59;;;;;;;;;;;15.70;55.90;;;;;;5032076;28;19925;-77
2021/04/20 09:28:29;;;;;;;;;;;15.70;56.10;;;;;;5030725;28;20297;-77
2021/04/20 09:30:58;;;;;;;;;;;15.80;55.80;;;;;;5032599;28;19925;-77
2021/04/20 09:33:31;;;;;;;;;;;15.90;55.60;;;;;;5032705;28;20381;-77
2021/04/20 09:35:59;;;;;;;;;;;15.90;55.40;;;;;;5035663;28;19988;-77
2021/04/20 09:38:28;;;;;;;;;;;16.00;55.20;;;;;;5036409;28;19921;-77
2021/04/20 09:41:01;;;;;;;;;;;16.00;54.20;;;;;;5036131;28;20369;-77
2021/04/20 09:43:30;;;;;;;;;;;16.00;53.80;;;;;;5036235;28;19925;-77
2021/04/20 09:46:00;;;;;;;;;;;16.00;54.10;;;;;;5036115;28;19921;-77
2021/04/20 09:48:31;;;;;;;;;;;15.90;53.90;;;;;;5035889;28;19922;-77
2021/04/20 09:51:02;;;;;;;;;;;15.80;53.60;;;;;;5016279;28;19933;-78
2021/04/20 09:53:37;;;;;;;;;;;15.90;53.70;;;;;;5016326;28;19922;-77
2021/04/20 09:56:15;;;;;;;;;;;15.90;53.60;;;;;;4997455;28;19921;-77
2021/04/20 09:58:44;;;;;;;;;;;15.90;53.60;;;;;;5016341;28;20290;-77
2021/04/20 10:01:16;;;;;;;;;;;16.00;54.10;;;;;;5016202;28;20370;-77
2021/04/20 10:03:46;;;;;;;;;;;16.20;54.30;;;;;;5016027;28;19922;-77
2021/04/20 10:06:23;;;;;;;;;;;16.30;53.70;;;;;;5017882;28;19967;-77
2021/04/20 10:09:03;;;;;;;;;;;16.40;53.20;;;;;;5035902;28;19943;-77
2021/04/20 10:11:33;;;;;;;;;;;16.50;52.50;;;;;;5035640;28;20281;-78
2021/04/20 10:14:03;;;;;;;;;;;16.70;52.10;;;;;;5035619;28;19957;-78
2021/04/20 10:16:35;;;;;;;;;;;16.60;51.60;;;;;;5024459;28;19925;-78
2021/04/20 10:19:07;;;;;;;;;;;16.70;52.10;;;;;;5015868;28;19922;-79
2021/04/20 10:21:38;;;;;;;;;;;16.80;52.30;;;;;;5014270;28;19926;-77
2021/04/20 10:24:08;;;;;;;;;;;16.90;52.10;;;;;;5035393;28;20015;-78
2021/04/20 10:26:38;;;;;;;;;;;17.10;51.20;;;;;;5035432;28;19932;-77
2021/04/20 10:29:13;;;;;;;;;;;17.30;50.80;;;;;;5035435;28;19928;-78
2021/04/20 10:31:43;;;;;;;;;;;17.20;49.90;;;;;;5035383;28;19925;-77
2021/04/20 10:34:10;;;;;;;;;;;17.20;50.20;;;;;;5035490;28;19922;-77
2021/04/20 10:36:38;;;;;;;;;;;17.20;50.20;;;;;;5035003;28;19972;-76
2021/04/20 10:39:07;;;;;;;;;;;17.20;50.50;;;;;;5035520;28;19921;-77
2021/04/20 10:41:34;;;;;;;;;;;17.20;50.00;;;;;;5035255;28;19921;-77
2021/04/20 10:44:01;;;;;;;;;;;17.30;49.90;;;;;;5035830;28;19948;-77
2021/04/20 10:46:29;;;;;;;;;;;17.40;49.60;;;;;;5034151;28;20396;-77
2021/04/20 10:48:59;;;;;;;;;;;17.50;49.70;;;;;;5033883;28;19921;-77
2021/04/20 10:51:29;;;;;;;;;;;17.90;49.50;;;;;;5034639;28;19921;-77
2021/04/20 10:53:57;;;;;;;;;;;18.10;48.20;;;;;;5035121;28;19921;-77
2021/04/20 10:56:24;;;;;;;;;;;18.20;47.60;;;;;;5034516;28;19921;-78
2021/04/20 10:58:54;;;;;;;;;;;18.20;47.30;;;;;;5034906;28;20357;-77
2021/04/20 11:01:27;;;;;;;;;;;18.20;46.90;;;;;;5034774;28;19936;-77
2021/04/20 11:03:54;;;;;;;;;;;18.20;47.10;;;;;;5034852;28;19921;-78
2021/04/20 11:06:38;;;;;;;;;;;18.60;46.60;;;;;;5034235;28;19982;-78
2021/04/20 11:09:06;;;;;;;;;;;19.10;45.40;;;;;;5033424;28;19943;-78
2021/04/20 11:11:36;;;;;;;;;;;19.10;45.00;;;;;;5034586;28;19921;-77
2021/04/20 11:14:03;;;;;;;;;;;19.00;44.70;;;;;;5032580;28;19921;-77
2021/04/20 11:16:32;;;;;;;;;;;19.30;44.80;;;;;;5034372;28;19924;-78
2021/04/20 11:19:03;;;;;;;;;;;20.30;43.60;;;;;;5034357;28;20353;-75
2021/04/20 11:21:34;;;;;;;;;;;21.60;42.10;;;;;;5033464;28;19963;-76
2021/04/20 11:24:03;;;;;;;;;;;22.60;40.00;;;;;;5034632;28;19925;-76
2021/04/20 11:26:32;;;;;;;;;;;23.30;38.00;;;;;;5034052;28;19921;-76
2021/04/20 11:29:02;;;;;;;;;;;24.70;38.00;;;;;;5034217;28;20281;-77
2021/04/20 11:31:29;;;;;;;;;;;27.30;35.90;;;;;;5033586;28;19921;-79
2021/04/20 11:33:59;;;;;;;;;;;29.90;31.20;;;;;;5034059;28;20310;-76
2021/04/20 11:36:27;;;;;;;;;;;31.60;27.50;;;;;;5033090;28;19933;-76
2021/04/20 11:38:56;;;;;;;;;;;32.70;26.20;;;;;;5034074;28;19928;-77
2021/04/20 11:41:27;;;;;;;;;;;34.10;25.40;;;;;;5032076;28;19921;-78
2021/04/20 11:43:55;;;;;;;;;;;35.60;23.60;;;;;;5033768;28;19921;-79
2021/04/20 11:46:23;;;;;;;;;;;36.90;22.50;;;;;;5033611;28;19943;-77
2021/04/20 11:48:51;;;;;;;;;;;38.30;21.10;;;;;;5033242;28;19928;-76
2021/04/20 11:51:17;;;;;;;;;;;38.90;20.00;;;;;;5033537;28;19921;-76
2021/04/20 11:53:45;;;;;;;;;;;39.40;19.00;;;;;;5034062;28;19921;-76
2021/04/20 11:56:11;;;;;;;;;;;37.80;19.50;;;;;;5033247;28;19980;-78
2021/04/20 11:58:38;;;;;;;;;;;37.60;19.90;;;;;;5032979;28;20372;-78
2021/04/20 12:01:11;;;;;;;;;;;36.20;19.60;;;;;;5032808;28;19921;-78
2021/04/20 12:03:46;;;;;;;;;;;34.10;20.90;;;;;;5032057;28;20405;-79
2021/04/20 12:06:16;;;;;;;;;;;32.10;22.10;;;;;;5031543;28;19921;-76
2021/04/20 12:08:43;;;;;;;;;;;30.10;23.50;;;;;;5032044;28;19921;-77
2021/04/20 12:11:11;;;;;;;;;;;28.00;25.00;;;;;;5033314;28;19925;-77
2021/04/20 12:13:40;;;;;;;;;;;26.10;27.20;;;;;;5032234;28;19921;-77
2021/04/20 12:16:08;;;;;;;;;;;24.80;29.00;;;;;;5032174;28;20280;-77
2021/04/20 12:18:36;;;;;;;;;;;23.80;30.30;;;;;;5025514;28;20012;-78
2021/04/20 12:21:04;;;;;;;;;;;22.90;31.90;;;;;;5032213;28;19925;-77
2021/04/20 12:23:31;;;;;;;;;;;22.30;32.40;;;;;;5033133;28;19925;-77
2021/04/20 12:26:01;;;;;;;;;;;21.70;33.20;;;;;;5032567;28;20027;-78
2021/04/20 12:28:29;;;;;;;;;;;21.30;34.70;;;;;;5032488;28;20353;-78
2021/04/20 12:30:56;;;;;;;;;;;21.20;35.20;;;;;;5032188;28;19945;-76
2021/04/20 12:33:23;;;;;;;;;;;21.10;35.60;;;;;;5031248;28;20016;-77
2021/04/20 12:35:51;;;;;;;;;;;20.90;36.30;;;;;;5032936;28;19967;-77
2021/04/20 12:38:19;;;;;;;;;;;20.50;36.30;;;;;;5032185;28;19925;-77
2021/04/20 12:40:50;;;;;;;;;;;20.20;37.30;;;;;;5031742;28;19929;-78
2021/04/20 12:43:20;;;;;;;;;;;20.00;37.80;;;;;;5031740;28;19921;-79
2021/04/20 12:45:47;;;;;;;;;;;19.90;38.00;;;;;;5032612;28;19991;-78
2021/04/20 12:48:18;;;;;;;;;;;19.80;37.90;;;;;;5030769;28;19921;-80
2021/04/20 12:50:50;;;;;;;;;;;19.70;37.90;;;;;;5032481;28;19933;-81
2021/04/20 12:53:20;;;;;;;;;;;19.70;37.90;;;;;;5031202;28;19925;-80
2021/04/20 12:55:47;;;;;;;;;;;19.70;38.40;;;;;;5032173;28;19921;-80
2021/04/20 12:58:20;;;;;;;;;;;19.60;38.30;;;;;;5031830;28;19921;-79
2021/04/20 13:00:48;;;;;;;;;;;19.60;37.60;;;;;;5031012;28;19928;-79
2021/04/20 13:03:15;;;;;;;;;;;19.70;37.60;;;;;;5031773;28;19921;-78
2021/04/20 13:05:42;;;;;;;;;;;19.80;37.90;;;;;;5031256;28;19925;-80
2021/04/20 13:08:10;;;;;;;;;;;19.80;37.80;;;;;;5033152;28;19921;-79
2021/04/20 13:10:38;;;;;;;;;;;19.80;38.00;;;;;;5034487;28;20011;-79
2021/04/20 13:13:06;;;;;;;;;;;19.90;37.70;;;;;;5035890;28;19921;-79
2021/04/20 13:15:33;;;;;;;;;;;19.90;37.30;;;;;;5035455;28;20020;-78
2021/04/20 13:18:00;;;;;;;;;;;19.90;36.20;;;;;;5034048;28;19926;-78
2021/04/20 13:20:28;;;;;;;;;;;19.80;35.90;;;;;;5030879;28;20259;-79
2021/04/20 13:22:54;;;;;;;;;;;19.80;36.00;;;;;;5045857;28;19928;-79
2021/04/20 13:25:24;;;;;;;;;;;19.80;36.10;;;;;;5028460;28;19948;-78
2021/04/20 13:27:53;;;;;;;;;;;19.90;36.00;;;;;;5047728;28;19975;-77
2021/04/20 13:30:21;;;;;;;;;;;20.00;36.20;;;;;;5038538;28;19967;-77
2021/04/20 13:32:48;;;;;;;;;;;19.80;35.00;;;;;;5036276;28;20321;-77
2021/04/20 13:35:15;;;;;;;;;;;19.70;35.80;;;;;;5027787;28;19926;-76
2021/04/20 13:37:43;;;;;;;;;;;19.70;37.50;;;;;;5034861;28;19928;-77
2021/04/20 13:40:11;;;;;;;;;;;19.80;36.70;;;;;;5029563;28;19921;-77
2021/04/20 13:42:38;;;;;;;;;;;19.90;36.10;;;;;;5035792;28;20024;-77
2021/04/20 13:45:07;;;;;;;;;;;19.90;36.10;;;;;;5036397;28;20011;-77
2021/04/20 13:47:33;;;;;;;;;;;19.90;36.00;;;;;;5041367;28;19976;-77
2021/04/20 13:50:00;;;;;;;;;;;19.90;35.80;;;;;;5036297;28;19925;-77
2021/04/20 13:52:27;;;;;;;;;;;19.80;36.10;;;;;;5028297;28;20282;-77
2021/04/20 13:54:57;;;;;;;;;;;19.80;36.10;;;;;;5034530;28;20309;-77
2021/04/20 13:57:25;;;;;;;;;;;19.70;35.70;;;;;;5037866;28;19928;-77
2021/04/20 13:59:53;;;;;;;;;;;19.70;36.30;;;;;;5056212;28;19951;-77
2021/04/20 14:02:21;;;;;;;;;;;19.60;36.00;;;;;;5052065;28;19922;-77
2021/04/20 14:04:49;;;;;;;;;;;19.50;36.00;;;;;;5052584;28;19920;-77
2021/04/20 14:07:21;;;;;;;;;;;19.40;36.20;;;;;;5025533;28;20008;-77
2021/04/20 14:09:52;;;;;;;;;;;19.40;36.50;;;;;;5021198;28;19926;-77
2021/04/20 14:12:22;;;;;;;;;;;19.40;36.60;;;;;;5044836;28;19921;-77
2021/04/20 14:14:52;;;;;;;;;;;19.50;36.50;;;;;;5052605;28;20019;-77
2021/04/20 14:17:20;;;;;;;;;;;19.50;36.80;;;;;;5040324;28;19921;-77
2021/04/20 14:19:49;;;;;;;;;;;19.40;36.70;;;;;;5047029;28;19933;-77
2021/04/20 14:22:16;;;;;;;;;;;19.30;37.00;;;;;;5053839;28;19921;-77
2021/04/20 14:24:43;;;;;;;;;;;19.30;37.30;;;;;;5055094;28;19921;-77
2021/04/20 14:27:10;;;;;;;;;;;19.30;37.30;;;;;;5055514;28;19921;-77
2021/04/20 14:29:37;;;;;;;;;;;19.30;37.50;;;;;;5054983;28;20004;-77
2021/04/20 14:32:08;;;;;;;;;;;19.30;37.10;;;;;;5053067;28;20376;-77
2021/04/20 14:34:36;;;;;;;;;;;19.30;36.80;;;;;;5055344;28;19921;-77
2021/04/20 14:37:02;;;;;;;;;;;19.40;36.70;;;;;;5045723;28;19928;-77
2021/04/20 14:39:29;;;;;;;;;;;19.50;36.70;;;;;;5046753;28;19932;-77
2021/04/20 14:41:56;;;;;;;;;;;19.60;36.10;;;;;;5049632;28;19925;-77
2021/04/20 14:44:24;;;;;;;;;;;19.70;36.40;;;;;;5044966;28;19920;-77
2021/04/20 14:46:51;;;;;;;;;;;19.80;37.20;;;;;;5050510;28;21456;-77